createdAt,value
2023-06-15T00:02:53.389Z,20.64
2023-06-15T00:07:54.805Z,20.60
2023-06-15T00:12:56.722Z,20.55
2023-06-15T00:17:58.628Z,20.43
2023-06-15T00:23:00.299Z,20.48
2023-06-15T00:28:39.136Z,20.42
2023-06-15T00:33:40.997Z,20.36
2023-06-15T00:38:42.398Z,20.31
2023-06-15T00:43:44.129Z,20.20
2023-06-15T00:48:46.067Z,20.20
2023-06-15T00:53:48.213Z,20.14
2023-06-15T00:58:50.460Z,20.07
2023-06-15T01:03:51.970Z,20.05
2023-06-15T01:08:54.561Z,20.04
2023-06-15T01:13:59.218Z,19.94
2023-06-15T01:24:25.339Z,19.80
2023-06-15T01:29:28.413Z,19.83
2023-06-15T01:34:32.412Z,19.83
2023-06-15T01:39:33.883Z,19.77
2023-06-15T01:44:36.345Z,19.71
2023-06-15T01:49:40.158Z,19.69
2023-06-15T01:54:41.625Z,19.54
2023-06-15T01:59:43.407Z,19.57
2023-06-15T02:04:44.848Z,19.52
2023-06-15T02:09:46.478Z,19.55
2023-06-15T02:14:49.126Z,19.56
2023-06-15T02:19:50.593Z,19.55
2023-06-15T02:24:52.206Z,19.51
2023-06-15T02:29:53.590Z,19.49
2023-06-15T02:34:57.312Z,19.47
2023-06-15T02:39:58.794Z,19.43
2023-06-15T02:45:00.725Z,19.28
2023-06-15T02:50:03.241Z,19.32
2023-06-15T02:55:05.085Z,19.28
2023-06-15T03:00:10.081Z,19.24
2023-06-15T03:05:12.433Z,19.16
2023-06-15T03:10:13.889Z,18.96
2023-06-15T03:15:16.139Z,19.03
2023-06-15T03:20:17.969Z,19.08
2023-06-15T03:25:21.410Z,19.07
2023-06-15T03:30:23.030Z,18.91
2023-06-15T03:35:24.650Z,18.86
2023-06-15T03:40:26.313Z,18.85
2023-06-15T03:45:27.685Z,18.79
2023-06-15T03:50:29.110Z,18.78
2023-06-15T03:55:31.259Z,18.77
2023-06-15T04:00:32.612Z,18.73
2023-06-15T04:05:34.126Z,18.75
2023-06-15T04:10:36.382Z,18.78
2023-06-15T04:15:38.068Z,18.78
2023-06-15T04:20:39.586Z,18.71
2023-06-15T04:25:43.788Z,18.76
2023-06-15T04:30:53.978Z,18.75
2023-06-15T04:35:57.456Z,18.68
2023-06-15T04:41:01.825Z,18.67
2023-06-15T04:46:03.478Z,18.75
2023-06-15T04:51:06.332Z,18.77
2023-06-15T04:56:07.812Z,18.82
2023-06-15T05:01:09.269Z,18.78
2023-06-15T05:06:11.128Z,18.80
2023-06-15T05:11:12.766Z,18.83
2023-06-15T05:16:14.222Z,18.95
2023-06-15T05:21:15.950Z,19.02
2023-06-15T05:26:28.992Z,19.13
2023-06-15T05:31:31.994Z,19.21
2023-06-15T05:36:54.582Z,19.24
2023-06-15T05:41:56.570Z,19.40
2023-06-15T05:46:58.235Z,19.47
2023-06-15T05:52:01.266Z,19.53
2023-06-15T05:57:02.938Z,19.48
2023-06-15T06:02:04.996Z,19.58
2023-06-15T06:07:07.698Z,19.71
2023-06-15T06:12:10.244Z,19.91
2023-06-15T06:17:14.694Z,20.04
2023-06-15T06:22:21.587Z,20.20
2023-06-15T06:27:24.507Z,20.26
2023-06-15T06:32:26.830Z,20.34
2023-06-15T06:37:28.552Z,20.43
2023-06-15T06:42:30.564Z,20.52
2023-06-15T06:47:32.566Z,20.70
2023-06-15T06:52:34.041Z,20.94
2023-06-15T06:57:36.935Z,21.15
2023-06-15T07:02:38.488Z,21.28
2023-06-15T07:07:40.343Z,21.42
2023-06-15T07:12:42.186Z,21.44
2023-06-15T07:17:44.029Z,21.58
2023-06-15T07:22:46.945Z,21.79
2023-06-15T07:27:48.961Z,21.97
2023-06-15T07:32:50.584Z,22.01
2023-06-15T07:37:52.494Z,22.25
2023-06-15T07:42:54.702Z,22.43
2023-06-15T07:47:56.166Z,22.56
2023-06-15T07:52:58.200Z,22.66
2023-06-15T07:58:00.617Z,22.87
2023-06-15T08:03:02.281Z,22.83
2023-06-15T08:08:04.391Z,23.07
2023-06-15T08:13:06.159Z,23.20
2023-06-15T08:18:07.850Z,23.36
2023-06-15T08:23:09.399Z,23.48
2023-06-15T08:28:13.548Z,23.55
2023-06-15T08:33:15.009Z,23.67
2023-06-15T08:38:16.710Z,23.74
2023-06-15T08:43:19.553Z,23.86
2023-06-15T08:48:23.027Z,23.99
2023-06-15T08:53:28.245Z,24.11
2023-06-15T08:58:29.713Z,24.32
2023-06-15T09:03:33.088Z,24.49
2023-06-15T09:08:36.455Z,24.61
2023-06-15T09:13:40.070Z,24.82
2023-06-15T09:18:49.746Z,24.62
2023-06-15T09:23:51.529Z,25.01
2023-06-15T09:28:59.032Z,25.18
2023-06-15T09:34:08.603Z,25.41
2023-06-15T09:39:13.012Z,25.59
2023-06-15T09:44:14.705Z,25.98
2023-06-15T09:49:34.156Z,26.28
2023-06-15T09:54:36.277Z,26.50
2023-06-15T09:59:37.780Z,26.61
2023-06-15T10:04:41.686Z,26.60
2023-06-15T10:09:49.145Z,26.76
2023-06-15T10:14:59.885Z,26.75
2023-06-15T10:20:10.178Z,26.74
2023-06-15T10:25:12.418Z,26.64
2023-06-15T10:30:25.173Z,26.94
2023-06-15T10:35:33.113Z,26.52
2023-06-15T10:40:41.204Z,26.94
2023-06-15T10:45:42.543Z,27.20
2023-06-15T10:50:49.515Z,27.20
2023-06-15T10:55:55.925Z,27.44
2023-06-15T11:01:08.778Z,27.58
2023-06-15T11:06:39.818Z,27.79
2023-06-15T11:11:46.409Z,28.03
2023-06-15T11:17:03.323Z,28.18
2023-06-15T11:22:07.764Z,28.23
2023-06-15T11:27:10.945Z,28.40
2023-06-15T11:32:12.695Z,28.51
2023-06-15T11:37:16.511Z,28.19
2023-06-15T11:42:20.197Z,28.38
2023-06-15T11:47:21.907Z,28.53
2023-06-15T11:52:24.627Z,28.62
2023-06-15T11:57:26.386Z,28.31
2023-06-15T12:02:28.070Z,28.15
2023-06-15T12:07:38.448Z,28.25
2023-06-15T12:12:41.677Z,28.45
2023-06-15T12:17:43.439Z,28.54
2023-06-15T12:22:47.896Z,28.59
2023-06-15T12:27:51.380Z,28.60
2023-06-15T12:32:54.682Z,28.60
2023-06-15T12:37:57.628Z,28.69
2023-06-15T12:43:04.826Z,28.61
2023-06-15T12:48:08.511Z,28.53
2023-06-15T12:53:10.572Z,28.40
2023-06-15T12:58:13.533Z,28.37
2023-06-15T13:03:16.569Z,28.41
2023-06-15T13:08:18.616Z,28.54
2023-06-15T13:13:20.083Z,28.46
2023-06-15T13:18:21.796Z,28.19
2023-06-15T13:23:23.658Z,27.81
2023-06-15T13:28:25.186Z,27.98
2023-06-15T13:33:27.428Z,27.75
2023-06-15T13:38:29.094Z,28.04
2023-06-15T13:43:31.424Z,28.10
2023-06-15T13:48:33.293Z,28.08
2023-06-15T13:53:34.893Z,27.98
2023-06-15T13:58:36.758Z,27.92
2023-06-15T14:03:41.163Z,27.96
2023-06-15T14:08:43.564Z,27.92
2023-06-15T14:13:51.655Z,27.92
2023-06-15T14:18:56.933Z,27.80
2023-06-15T14:23:58.757Z,27.62
2023-06-15T14:29:00.321Z,27.62
2023-06-15T14:34:02.245Z,27.59
2023-06-15T14:39:05.770Z,27.52
2023-06-15T14:44:09.067Z,27.49
2023-06-15T14:49:11.661Z,27.41
2023-06-15T14:54:13.021Z,27.47
2023-06-15T14:59:14.948Z,27.41
2023-06-15T15:04:16.357Z,27.35
2023-06-15T15:09:18.456Z,27.14
2023-06-15T15:14:19.851Z,27.26
2023-06-15T15:19:22.758Z,27.21
2023-06-15T15:24:24.658Z,27.20
2023-06-15T15:29:26.982Z,27.19
2023-06-15T15:34:29.090Z,27.20
2023-06-15T15:39:30.712Z,27.22
2023-06-15T15:44:32.096Z,27.17
2023-06-15T15:49:33.585Z,27.12
2023-06-15T15:54:35.125Z,27.09
2023-06-15T15:59:39.007Z,27.07
2023-06-15T16:04:41.016Z,27.08
2023-06-15T16:09:42.682Z,27.01
2023-06-15T16:14:44.374Z,26.90
2023-06-15T16:19:45.890Z,26.89
2023-06-15T16:24:48.849Z,26.83
2023-06-15T16:29:50.501Z,26.80
2023-06-15T16:34:52.437Z,26.84
2023-06-15T16:39:56.437Z,26.78
2023-06-15T16:45:01.149Z,26.69
2023-06-15T16:50:03.777Z,26.69
2023-06-15T16:55:06.094Z,26.65
2023-06-15T17:00:08.276Z,26.63
2023-06-15T17:05:09.966Z,26.61
2023-06-15T17:10:11.746Z,26.54
2023-06-15T17:15:13.497Z,26.51
2023-06-15T17:20:15.324Z,26.44
2023-06-15T17:25:16.694Z,26.44
2023-06-15T17:30:20.125Z,26.40
2023-06-15T17:35:22.723Z,26.42
2023-06-15T17:40:28.208Z,26.39
2023-06-15T17:45:32.802Z,26.35
2023-06-15T17:50:34.399Z,26.21
2023-06-15T17:55:39.209Z,26.13
2023-06-15T18:00:41.167Z,26.06
2023-06-15T18:05:43.210Z,26.05
2023-06-15T18:10:46.322Z,26.06
2023-06-15T18:15:49.287Z,26.05
2023-06-15T18:20:51.295Z,26.01
2023-06-15T18:25:56.340Z,25.97
2023-06-15T18:30:58.282Z,25.95
2023-06-15T18:36:00.736Z,25.89
2023-06-15T18:41:03.426Z,25.82
2023-06-15T18:46:04.843Z,25.68
2023-06-15T18:51:06.606Z,25.67
2023-06-15T18:56:08.007Z,25.60
2023-06-15T19:01:09.691Z,25.52
2023-06-15T19:06:11.216Z,25.39
2023-06-15T19:11:13.288Z,25.35
2023-06-15T19:16:15.074Z,25.31
2023-06-15T19:21:16.603Z,25.27
2023-06-15T19:26:18.424Z,25.13
2023-06-15T19:31:19.899Z,25.06
2023-06-15T19:36:21.388Z,24.96
2023-06-15T19:41:23.354Z,24.92
2023-06-15T19:46:24.901Z,24.85
2023-06-15T19:51:26.755Z,24.73
2023-06-15T19:56:28.240Z,24.63
2023-06-15T20:01:30.027Z,24.56
2023-06-15T20:06:32.040Z,24.48
2023-06-15T20:11:33.533Z,24.31
2023-06-15T20:16:35.623Z,24.33
2023-06-15T20:21:37.351Z,24.15
2023-06-15T20:26:40.215Z,23.95
2023-06-15T20:31:44.200Z,24.13
2023-06-15T20:36:46.858Z,24.08
2023-06-15T20:41:48.229Z,24.10
2023-06-15T20:46:49.721Z,24.09
2023-06-15T20:51:51.221Z,23.99
2023-06-15T20:56:53.552Z,23.93
2023-06-15T21:01:55.214Z,23.81
2023-06-15T21:06:57.114Z,23.69
2023-06-15T21:11:58.561Z,23.30
2023-06-15T21:17:00.032Z,23.36
2023-06-15T21:22:04.190Z,23.24
2023-06-15T21:27:06.574Z,22.99
2023-06-15T21:32:08.400Z,22.77
2023-06-15T21:37:11.049Z,22.76
2023-06-15T21:42:12.609Z,22.54
2023-06-15T21:47:13.984Z,22.55
2023-06-15T21:52:17.360Z,22.38
2023-06-15T21:57:18.900Z,22.34
2023-06-15T22:02:20.317Z,22.03
2023-06-15T22:07:21.691Z,22.05
2023-06-15T22:12:23.081Z,22.22
2023-06-15T22:17:26.868Z,22.40
2023-06-15T22:22:28.461Z,22.36
2023-06-15T22:27:29.964Z,22.15
2023-06-15T22:32:31.555Z,22.13
2023-06-15T22:37:32.982Z,22.04
2023-06-15T22:42:34.604Z,22.21
2023-06-15T22:47:41.810Z,22.02
2023-06-15T22:52:43.454Z,21.89
2023-06-15T22:57:44.822Z,21.87
2023-06-15T23:02:46.742Z,21.92
2023-06-15T23:07:49.781Z,21.76
2023-06-15T23:12:51.723Z,21.88
2023-06-15T23:17:53.305Z,21.83
2023-06-15T23:22:59.207Z,21.93
2023-06-15T23:28:04.089Z,21.89
2023-06-15T23:33:05.919Z,21.85
2023-06-15T23:38:07.347Z,21.71
2023-06-15T23:43:08.799Z,21.67
2023-06-15T23:48:10.983Z,21.65
2023-06-15T23:53:12.987Z,21.32
2023-06-15T23:58:14.701Z,21.47
